Terminal Aerodrome Forecast
Issued by NWS

Current Version | Previous Version | Graphics & Text | Print | Product List | Glossary On
Versions: 1 2 3 4 5 6 7 8 9 10 11 12 13 14 15 16 17 18 19 20
688
FTUS41 KPBZ 221748
TAFMGW
TAF
KMGW 221748Z 2218/2318 21005KT P6SM SCT030 BKN100
     FM230600 20007KT 6SM -SHRA OVC025
     FM231500 21012G20KT P6SM -SHRA VCTS BKN025CB=

USA.gov is the U.S. government's official web portal to all federal, state and local government web resources and services.